Time;durP1;ratioP1;P1;durP2;ratioP2;P2;SDS_P1;SDS_P2;PMS_P1;PMS_P2;Temp;Humidity;BMP_temperature;BMP_pressure;BME280_temperature;BME280_humidity;BME280_pressure;Samples;Min_cycle;Max_cycle;Signal;HPM_P1;HPM_P2
2021/01/10 00:00:36;;;;;;;15.57;11.17;;;;;;;-3.08;95.46;99331.28;4945999;28;104077;-74
2021/01/10 00:03:04;;;;;;;15.57;11.43;;;;;;;-3.14;95.64;99331.31;4946047;28;105084;-75
2021/01/10 00:05:34;;;;;;;16.37;11.37;;;;;;;-3.13;96.80;99331.34;4944469;28;102953;-73
2021/01/10 00:08:02;;;;;;;16.57;11.60;;;;;;;-3.23;97.42;99332.28;4945350;28;103496;-74
2021/01/10 00:10:31;;;;;;;16.93;11.37;;;;;;;-2.98;97.15;99336.38;4945523;28;103827;-73
2021/01/10 00:12:59;;;;;;;17.83;11.83;;;;;;;-2.94;96.72;99326.84;4949715;28;105365;-73
2021/01/10 00:15:28;;;;;;;15.53;10.67;;;;;;;-2.90;96.25;99328.56;4962875;28;102936;-73
2021/01/10 00:17:55;;;;;;;19.23;12.47;;;;;;;-3.16;95.36;99327.91;4948561;28;102905;-77
2021/01/10 00:20:23;;;;;;;16.43;11.40;;;;;;;-3.08;96.01;99328.69;4940993;28;104433;-74
2021/01/10 00:22:51;;;;;;;18.67;13.17;;;;;;;-3.14;95.62;99327.00;4945457;28;106243;-74
2021/01/10 00:25:19;;;;;;;19.67;13.50;;;;;;;-3.14;96.18;99332.19;4946955;28;102569;-74
2021/01/10 00:27:47;;;;;;;15.87;11.80;;;;;;;-3.03;95.90;99317.44;4946690;28;103120;-74
2021/01/10 00:30:17;;;;;;;16.73;12.80;;;;;;;-3.06;94.99;99322.63;4945356;28;104485;-74
2021/01/10 00:32:48;;;;;;;17.33;11.57;;;;;;;-3.06;95.60;99316.63;4946939;28;103778;-74
2021/01/10 00:35:16;;;;;;;19.27;13.03;;;;;;;-2.98;95.84;99323.47;4943917;28;102443;-74
2021/01/10 00:37:48;;;;;;;20.03;13.77;;;;;;;-3.00;94.80;99324.31;4945524;28;102820;-74
2021/01/10 00:40:18;;;;;;;17.87;13.43;;;;;;;-3.00;94.87;99326.91;4946564;28;103772;-74
2021/01/10 00:42:46;;;;;;;19.70;13.90;;;;;;;-2.94;94.94;99324.28;4947113;28;104410;-73
2021/01/10 00:45:14;;;;;;;18.63;13.20;;;;;;;-3.12;94.82;99338.22;4950244;28;102540;-73
2021/01/10 00:47:45;;;;;;;19.07;13.30;;;;;;;-3.05;94.90;99339.88;4962146;28;102983;-74
2021/01/10 00:50:20;;;;;;;20.63;12.40;;;;;;;-2.98;95.17;99330.34;4928669;28;103817;-74
2021/01/10 00:52:47;;;;;;;16.13;11.90;;;;;;;-3.05;94.01;99334.72;4951056;28;104548;-74
2021/01/10 00:55:14;;;;;;;16.80;12.97;;;;;;;-3.11;93.83;99327.00;4947989;28;103226;-74
2021/01/10 00:57:41;;;;;;;20.90;15.07;;;;;;;-3.29;95.93;99337.50;4944699;28;105321;-76
2021/01/10 01:00:14;;;;;;;19.70;15.20;;;;;;;-3.29;97.36;99336.63;4943922;28;104912;-73
2021/01/10 01:02:47;;;;;;;19.93;14.27;;;;;;;-3.21;97.57;99343.47;4942687;28;103708;-73
2021/01/10 01:05:17;;;;;;;19.03;14.17;;;;;;;-3.11;97.20;99339.91;4944559;28;102911;-74
2021/01/10 01:07:45;;;;;;;18.27;13.87;;;;;;;-3.06;97.06;99348.50;4952468;28;103222;-74
2021/01/10 01:10:13;;;;;;;18.93;12.90;;;;;;;-2.97;96.84;99345.84;4949352;28;103756;-76
2021/01/10 01:12:40;;;;;;;22.60;15.60;;;;;;;-2.96;96.74;99344.97;4949969;28;105306;-74
2021/01/10 01:15:08;;;;;;;19.23;13.07;;;;;;;-2.95;97.01;99341.50;4969364;28;102470;-74
2021/01/10 01:17:36;;;;;;;17.93;12.80;;;;;;;-2.79;97.60;99351.72;4957984;28;103684;-74
2021/01/10 01:20:05;;;;;;;20.97;16.23;;;;;;;-2.96;96.38;99344.13;4948227;28;104934;-74
2021/01/10 01:22:32;;;;;;;21.17;15.63;;;;;;;-2.86;97.13;99347.50;4950381;28;104983;-74
2021/01/10 01:25:02;;;;;;;20.80;14.73;;;;;;;-2.75;97.04;99343.09;4948705;28;102562;-73
2021/01/10 01:27:32;;;;;;;19.90;15.17;;;;;;;-2.79;96.83;99352.59;4949074;28;103207;-74
2021/01/10 01:29:59;;;;;;;23.03;17.17;;;;;;;-2.87;96.21;99354.41;4949205;28;103880;-75
2021/01/10 01:32:26;;;;;;;25.17;17.27;;;;;;;-2.90;96.64;99361.31;4949412;28;103660;-74
2021/01/10 01:34:53;;;;;;;23.03;16.67;;;;;;;-2.87;97.41;99359.56;4949041;28;102830;-75
2021/01/10 01:37:20;;;;;;;21.90;15.57;;;;;;;-2.99;97.99;99360.53;4948983;28;102720;-73
2021/01/10 01:39:47;;;;;;;21.87;15.60;;;;;;;-3.04;98.82;99357.13;4949283;28;104364;-74
2021/01/10 01:42:16;;;;;;;24.10;17.50;;;;;;;-3.12;99.35;99371.84;4949865;28;104116;-75
2021/01/10 01:44:45;;;;;;;26.67;18.10;;;;;;;-3.24;100.00;99369.31;4947981;28;102940;-74
2021/01/10 01:47:15;;;;;;;22.80;17.83;;;;;;;-3.33;100.00;99364.22;4948012;28;102556;-75
2021/01/10 01:49:43;;;;;;;23.40;17.10;;;;;;;-3.25;100.00;99367.59;4947272;28;105167;-74
2021/01/10 01:52:10;;;;;;;21.93;15.73;;;;;;;-3.16;100.00;99377.00;4948528;28;103670;-74
2021/01/10 01:54:38;;;;;;;26.07;17.43;;;;;;;-3.04;100.00;99380.38;4948460;28;104135;-75
2021/01/10 01:57:05;;;;;;;22.07;14.97;;;;;;;-2.99;100.00;99381.19;4948625;28;102911;-74
2021/01/10 01:59:33;;;;;;;24.13;16.20;;;;;;;-3.07;100.00;99377.81;4948874;28;104919;-76
2021/01/10 02:02:05;;;;;;;24.03;17.07;;;;;;;-3.03;100.00;99378.63;4939003;28;103826;-74
2021/01/10 02:04:38;;;;;;;25.80;17.17;;;;;;;-3.05;100.00;99370.91;4948478;28;102905;-75
2021/01/10 02:07:09;;;;;;;18.77;12.67;;;;;;;-2.85;100.00;99377.63;4943396;28;103063;-75
2021/01/10 02:09:41;;;;;;;19.13;14.67;;;;;;;-2.77;100.00;99365.50;4951853;28;103019;-74
2021/01/10 02:12:11;;;;;;;23.00;14.17;;;;;;;-2.70;99.38;99368.03;4948793;28;103772;-75
2021/01/10 02:14:45;;;;;;;26.17;18.27;;;;;;;-2.70;98.10;99362.88;4948204;28;102990;-75
2021/01/10 02:17:15;;;;;;;31.80;23.63;;;;;;;-3.15;96.09;99369.25;4948303;28;102600;-75
2021/01/10 02:19:50;;;;;;;24.67;19.33;;;;;;;-3.05;97.33;99367.44;4948042;28;105322;-74
2021/01/10 02:22:21;;;;;;;24.13;17.10;;;;;;;-3.03;96.89;99369.16;4948149;28;104802;-75
2021/01/10 02:24:50;;;;;;;21.03;14.53;;;;;;;-2.99;96.44;99368.28;4956812;28;102967;-75
2021/01/10 02:27:18;;;;;;;20.13;13.50;;;;;;;-2.94;96.39;99365.63;4967928;28;102621;-75
2021/01/10 02:29:45;;;;;;;19.93;14.50;;;;;;;-2.97;95.61;99368.25;4966610;28;105794;-77
2021/01/10 02:32:14;;;;;;;23.80;17.00;;;;;;;-3.36;95.12;99371.13;4948183;28;103640;-74
2021/01/10 02:34:43;;;;;;;22.83;17.23;;;;;;;-3.58;96.93;99362.63;4947054;28;102992;-75
2021/01/10 02:37:21;;;;;;;24.57;16.60;;;;;;;-3.81;97.76;99361.88;4948343;28;103125;-74
2021/01/10 02:40:00;;;;;;;25.13;17.93;;;;;;;-3.83;99.63;99364.50;4946574;28;103870;-74
2021/01/10 02:42:35;;;;;;;23.10;16.70;;;;;;;-3.76;99.64;99360.16;4949009;28;105951;-74
2021/01/10 02:45:06;;;;;;;26.20;17.70;;;;;;;-3.85;99.50;99362.78;4968028;28;102972;-75
2021/01/10 02:47:33;;;;;;;22.33;15.30;;;;;;;-3.62;99.89;99355.78;4958814;28;103055;-74
2021/01/10 02:50:01;;;;;;;21.43;15.67;;;;;;;-3.59;99.09;99350.56;4947853;28;103859;-74
2021/01/10 02:52:28;;;;;;;19.87;13.97;;;;;;;-3.60;98.63;99348.88;4947222;28;103183;-74
2021/01/10 02:54:56;;;;;;;22.77;15.07;;;;;;;-3.52;98.29;99357.44;4945289;28;104268;-75
2021/01/10 02:57:27;;;;;;;22.20;15.10;;;;;;;-3.39;98.83;99353.03;4948203;28;102880;-74
2021/01/10 02:59:56;;;;;;;21.33;15.87;;;;;;;-3.75;97.78;99346.38;4947782;28;103113;-74
2021/01/10 03:02:23;;;;;;;16.63;12.17;;;;;;;-3.54;98.42;99352.25;4939680;28;104812;-74
2021/01/10 03:04:52;;;;;;;22.03;15.57;;;;;;;-3.45;97.84;99355.69;4946502;28;102546;-74
2021/01/10 03:07:20;;;;;;;20.73;14.27;;;;;;;-3.56;96.72;99351.44;4945701;28;103422;-75
2021/01/10 03:09:47;;;;;;;22.60;16.37;;;;;;;-3.73;96.15;99348.06;4946929;28;105048;-77
2021/01/10 03:12:24;;;;;;;20.63;14.40;;;;;;;-3.62;96.99;99348.03;4947207;28;103287;-75
2021/01/10 03:14:52;;;;;;;21.83;15.00;;;;;;;-3.59;96.35;99345.41;4928764;28;102978;-74
2021/01/10 03:17:31;;;;;;;20.10;15.03;;;;;;;-3.78;95.51;99336.06;4939335;28;103305;-74
2021/01/10 03:19:59;;;;;;;22.67;15.97;;;;;;;-3.89;95.62;99345.56;4943495;28;104630;-74
2021/01/10 03:22:26;;;;;;;24.07;16.53;;;;;;;-4.05;95.96;99338.78;4936512;28;103259;-75
2021/01/10 03:24:53;;;;;;;20.77;14.67;;;;;;;-4.02;96.90;99338.75;4947628;28;102629;-75
2021/01/10 03:27:21;;;;;;;22.93;16.67;;;;;;;-4.08;97.11;99323.28;4960189;28;102824;-74
2021/01/10 03:29:48;;;;;;;22.43;15.43;;;;;;;-3.88;97.98;99326.66;4964856;28;103188;-74
2021/01/10 03:32:16;;;;;;;20.17;12.33;;;;;;;-3.79;97.71;99326.59;4956762;28;106872;-74
2021/01/10 03:34:43;;;;;;;20.83;14.73;;;;;;;-3.91;96.29;99326.66;4929932;28;102851;-75
2021/01/10 03:37:11;;;;;;;24.33;16.27;;;;;;;-4.41;96.75;99321.69;4948324;28;102861;-75
2021/01/10 03:39:38;;;;;;;23.20;15.47;;;;;;;-4.10;98.34;99326.72;4947291;28;105039;-74
2021/01/10 03:42:06;;;;;;;23.27;16.30;;;;;;;-4.17;97.45;99325.06;4949132;28;104879;-75
2021/01/10 03:44:35;;;;;;;19.97;14.50;;;;;;;-4.11;97.52;99327.63;4950893;28;103144;-75
2021/01/10 03:47:03;;;;;;;20.10;14.83;;;;;;;-4.13;97.38;99325.91;4947632;28;103315;-76
2021/01/10 03:49:30;;;;;;;22.33;16.23;;;;;;;-4.27;97.60;99328.53;4946917;28;105494;-74
2021/01/10 03:51:58;;;;;;;19.93;15.70;;;;;;;-4.47;98.48;99340.63;4946620;28;104982;-74
2021/01/10 03:54:25;;;;;;;22.30;16.77;;;;;;;-4.48;99.02;99332.88;4943509;28;103217;-79
2021/01/10 03:56:52;;;;;;;22.93;15.60;;;;;;;-4.43;100.00;99339.75;4945514;28;103081;-76
2021/01/10 03:59:19;;;;;;;25.23;17.50;;;;;;;-4.36;100.00;99338.03;4927735;28;103844;-74
2021/01/10 04:01:47;;;;;;;24.63;16.17;;;;;;;-4.34;100.00;99334.56;4938253;28;103941;-75
2021/01/10 04:04:14;;;;;;;23.50;17.57;;;;;;;-4.35;100.00;99340.56;4946827;28;103018;-75
2021/01/10 04:06:41;;;;;;;21.20;15.03;;;;;;;-4.22;100.00;99334.53;4945074;28;103115;-74
2021/01/10 04:09:08;;;;;;;18.23;12.77;;;;;;;-3.98;100.00;99333.56;4952527;28;103793;-74
2021/01/10 04:11:35;;;;;;;20.10;14.50;;;;;;;-4.05;99.53;99331.88;4929216;28;105297;-74
2021/01/10 04:14:03;;;;;;;24.40;17.47;;;;;;;-4.28;99.80;99342.28;4946899;28;102945;-74
2021/01/10 04:16:30;;;;;;;23.70;16.43;;;;;;;-4.17;99.68;99343.13;4947056;28;103599;-74
2021/01/10 04:18:58;;;;;;;24.17;17.43;;;;;;;-4.33;99.34;99343.19;4944027;28;105466;-75
2021/01/10 04:21:32;;;;;;;25.63;16.93;;;;;;;-4.33;99.85;99343.19;4946535;28;104145;-75
2021/01/10 04:24:00;;;;;;;24.07;14.80;;;;;;;-4.16;99.95;99342.25;4927736;28;103082;-74
2021/01/10 04:26:27;;;;;;;22.03;15.53;;;;;;;-4.34;99.72;99355.22;4928153;28;102961;-74
2021/01/10 04:28:54;;;;;;;21.10;14.47;;;;;;;-4.20;100.00;99340.53;4945971;28;103711;-75
2021/01/10 04:31:21;;;;;;;14.83;10.30;;;;;;;-3.89;100.00;99335.25;4946917;28;103208;-75
2021/01/10 04:33:49;;;;;;;22.80;14.43;;;;;;;-3.85;99.79;99347.28;4947121;28;103011;-74
2021/01/10 04:36:17;;;;;;;20.40;14.60;;;;;;;-3.72;99.51;99334.31;4946621;28;102564;-74
2021/01/10 04:38:44;;;;;;;24.30;16.37;;;;;;;-3.92;98.89;99348.16;4944867;28;102810;-75
2021/01/10 04:41:12;;;;;;;21.50;14.40;;;;;;;-3.68;100.00;99338.56;4946820;28;103626;-74
2021/01/10 04:43:40;;;;;;;21.80;13.90;;;;;;;-3.45;100.00;99333.28;4949431;28;102628;-74
2021/01/10 04:46:08;;;;;;;17.40;12.00;;;;;;;-3.39;98.81;99335.81;4949739;28;102921;-74
2021/01/10 04:48:36;;;;;;;18.60;14.53;;;;;;;-3.33;97.97;99333.19;4966967;28;103851;-76
2021/01/10 04:51:03;;;;;;;17.23;10.80;;;;;;;-3.34;97.16;99336.63;4954653;28;105218;-74
2021/01/10 04:53:35;;;;;;;22.47;15.47;;;;;;;-3.38;97.96;99340.13;4948828;28;102940;-75
2021/01/10 04:56:05;;;;;;;21.43;15.43;;;;;;;-3.25;97.27;99339.16;4949638;28;102924;-74
2021/01/10 04:58:36;;;;;;;16.83;12.07;;;;;;;-3.22;95.96;99336.56;4949851;28;105449;-74
2021/01/10 05:01:04;;;;;;;13.47;9.43;;;;;;;-3.07;96.43;99331.28;4948692;28;103103;-74
2021/01/10 05:03:31;;;;;;;18.37;13.43;;;;;;;-3.16;95.63;99336.53;4952346;28;102553;-74
2021/01/10 05:05:58;;;;;;;15.87;11.60;;;;;;;-3.33;96.41;99348.69;4948221;28;104058;-75
2021/01/10 05:08:26;;;;;;;17.13;11.63;;;;;;;-3.05;97.81;99344.19;4948038;28;103800;-74
2021/01/10 05:10:54;;;;;;;18.80;13.73;;;;;;;-2.96;96.96;99329.47;4948189;28;103653;-75
2021/01/10 05:13:21;;;;;;;18.23;11.50;;;;;;;-2.92;95.82;99334.63;4950207;28;102920;-75
2021/01/10 05:15:54;;;;;;;20.97;15.13;;;;;;;-3.21;95.42;99338.28;4949743;28;103076;-74
2021/01/10 05:18:22;;;;;;;14.97;10.57;;;;;;;-3.06;96.17;99348.50;4949608;28;103760;-74
2021/01/10 05:20:53;;;;;;;14.50;10.90;;;;;;;-2.92;96.64;99351.81;4948565;28;103647;-75
2021/01/10 05:23:27;;;;;;;20.90;15.00;;;;;;;-3.35;96.90;99355.63;4963499;28;102516;-74
2021/01/10 05:26:04;;;;;;;25.63;14.63;;;;;;;-3.19;97.71;99353.78;4969539;28;103078;-74
2021/01/10 05:28:31;;;;;;;18.50;14.50;;;;;;;-3.27;97.50;99350.38;4969001;28;103235;-74
2021/01/10 05:31:00;;;;;;;16.87;11.80;;;;;;;-3.02;98.08;99349.34;4966046;28;103897;-75
2021/01/10 05:33:27;;;;;;;16.57;12.10;;;;;;;-2.93;97.61;99344.09;4948354;28;103008;-77
2021/01/10 05:35:56;;;;;;;19.70;14.40;;;;;;;-2.81;96.92;99343.13;4933287;28;102782;-74
2021/01/10 05:38:26;;;;;;;21.33;13.10;;;;;;;-2.84;96.40;99348.34;4942729;28;105069;-74
2021/01/10 05:40:54;;;;;;;19.83;14.00;;;;;;;-2.73;96.85;99351.69;4947418;28;103757;-75
2021/01/10 05:43:23;;;;;;;20.23;14.33;;;;;;;-2.77;96.08;99344.81;4948650;28;103304;-74
2021/01/10 05:45:50;;;;;;;16.10;10.50;;;;;;;-2.71;96.30;99342.16;4959550;28;102803;-74
2021/01/10 05:48:18;;;;;;;16.07;11.50;;;;;;;-2.60;96.35;99340.34;4968207;28;103936;-74
2021/01/10 05:50:47;;;;;;;20.67;14.20;;;;;;;-3.07;95.97;99341.63;4955305;28;105331;-74
2021/01/10 05:53:19;;;;;;;19.13;13.70;;;;;;;-3.00;97.49;99348.44;4952585;28;102850;-74
2021/01/10 05:55:54;;;;;;;16.97;12.50;;;;;;;-2.80;97.77;99344.84;4948708;28;103235;-74
2021/01/10 05:58:23;;;;;;;16.37;11.47;;;;;;;-2.70;96.95;99341.31;4947129;28;103909;-74
2021/01/10 06:00:52;;;;;;;18.00;12.47;;;;;;;-2.93;96.31;99354.44;4945854;28;105152;-74
2021/01/10 06:03:21;;;;;;;16.97;11.57;;;;;;;-2.79;96.29;99341.38;4949439;28;103038;-74
2021/01/10 06:05:59;;;;;;;14.77;10.33;;;;;;;-2.75;95.51;99358.59;4946667;28;103246;-75
2021/01/10 06:08:32;;;;;;;21.27;11.80;;;;;;;-3.10;96.75;99357.16;4961345;28;103837;-75
2021/01/10 06:11:32;;;;;;;16.40;9.80;;;;;;;-2.80;97.34;99358.63;4951949;28;103266;-76
2021/01/10 06:14:01;;;;;;;14.47;9.63;;;;;;;-2.65;97.31;99349.88;4948393;28;103044;-74
2021/01/10 06:16:31;;;;;;;16.63;11.70;;;;;;;-2.65;95.81;99349.88;4949159;28;102606;-74
2021/01/10 06:19:01;;;;;;;18.03;11.07;;;;;;;-2.55;96.40;99346.31;4948662;28;103815;-75
2021/01/10 06:21:30;;;;;;;16.83;11.83;;;;;;;-2.48;95.58;99342.81;4947313;28;103996;-75
2021/01/10 06:23:59;;;;;;;13.87;9.97;;;;;;;-2.53;95.66;99339.41;4947603;28;103005;-74
2021/01/10 06:26:27;;;;;;;18.33;12.13;;;;;;;-2.89;95.84;99345.75;4948689;28;102822;-74
2021/01/10 06:28:58;;;;;;;13.87;8.60;;;;;;;-2.78;97.39;99340.53;4948108;28;105028;-74
2021/01/10 06:31:28;;;;;;;14.07;9.67;;;;;;;-2.54;98.08;99353.22;4947259;28;103792;-75
2021/01/10 06:34:00;;;;;;;15.13;10.97;;;;;;;-2.46;97.00;99346.22;4948729;28;102949;-74
2021/01/10 06:36:29;;;;;;;18.23;12.07;;;;;;;-2.69;95.63;99350.75;4945666;28;102643;-75
2021/01/10 06:39:06;;;;;;;15.30;10.50;;;;;;;-2.44;96.86;99354.84;4946467;28;104950;-76
2021/01/10 06:42:06;;;;;;;17.70;10.43;;;;;;;-2.34;96.71;99346.13;4955684;28;104262;-75
2021/01/10 06:44:35;;;;;;;15.80;10.40;;;;;;;-2.24;96.14;99352.91;4947609;28;103109;-75
2021/01/10 06:47:05;;;;;;;14.23;10.67;;;;;;;-2.36;95.57;99340.09;4948162;28;103361;-75
2021/01/10 06:49:32;;;;;;;18.60;11.57;;;;;;;-2.26;96.22;99349.47;4936238;28;104727;-74
2021/01/10 06:52:04;;;;;;;19.50;13.33;;;;;;;-2.31;96.26;99337.47;4938972;28;104747;-74
2021/01/10 06:54:40;;;;;;;16.73;11.80;;;;;;;-2.49;95.72;99348.84;4947706;28;103886;-75
2021/01/10 06:57:08;;;;;;;16.17;10.10;;;;;;;-2.26;97.19;99349.47;4948545;28;103865;-75
2021/01/10 07:00:01;;;;;;;13.67;9.07;;;;;;;-2.12;96.95;99331.19;4946355;28;103313;-74
2021/01/10 07:02:29;;;;;;;19.57;13.13;;;;;;;-2.53;95.72;99339.41;4960522;28;104395;-76
2021/01/10 07:05:01;;;;;;;14.70;10.70;;;;;;;-2.43;97.07;99339.31;4946008;28;102954;-74
2021/01/10 07:07:38;;;;;;;14.60;10.33;;;;;;;-2.22;97.35;99335.63;4947890;28;103373;-75
2021/01/10 07:10:09;;;;;;;14.83;11.87;;;;;;;-2.17;96.87;99339.03;4946020;28;106904;-75
2021/01/10 07:12:36;;;;;;;16.27;12.47;;;;;;;-2.66;97.49;99342.97;4928610;28;106458;-75
2021/01/10 07:15:36;;;;;;;16.13;11.60;;;;;;;-2.50;97.90;99345.41;4948574;28;102599;-71
2021/01/10 07:18:08;;;;;;;15.60;12.50;;;;;;;-2.36;97.86;99347.88;4880038;28;103003;-72
2021/01/10 07:20:39;;;;;;;19.47;13.50;;;;;;;-2.15;98.07;99346.75;4875243;28;104327;-72
2021/01/10 07:23:32;;;;;;;14.03;9.40;;;;;;;-2.10;96.58;99345.84;4916909;28;104802;-72
2021/01/10 07:26:01;;;;;;;18.10;12.70;;;;;;;-2.05;96.03;99354.41;4925087;28;102869;-72
2021/01/10 07:28:40;;;;;;;18.00;13.40;;;;;;;-2.36;95.77;99353.03;4956909;28;102991;-73
2021/01/10 07:31:20;;;;;;;18.77;12.67;;;;;;;-2.31;96.45;99346.09;4947915;28;104657;-72
2021/01/10 07:34:10;;;;;;;13.67;9.20;;;;;;;-1.97;97.42;99354.34;4946789;28;103666;-71
2021/01/10 07:36:46;;;;;;;19.20;12.73;;;;;;;-1.86;97.00;99349.88;4953709;28;103079;-72
2021/01/10 07:39:14;;;;;;;19.40;13.33;;;;;;;-2.22;94.94;99356.34;4948832;28;102829;-72
2021/01/10 07:41:42;;;;;;;19.27;13.63;;;;;;;-2.39;97.49;99358.25;4946436;28;103719;-71
2021/01/10 07:44:09;;;;;;;18.13;13.27;;;;;;;-2.22;97.44;99365.84;4951022;28;103821;-71
2021/01/10 07:47:01;;;;;;;20.70;14.30;;;;;;;-2.03;97.30;99360.44;4946612;28;102880;-71
2021/01/10 07:49:49;;;;;;;19.57;13.33;;;;;;;-2.24;95.40;99352.91;4949256;28;102578;-71
2021/01/10 07:52:51;;;;;;;17.23;12.23;;;;;;;-2.20;96.23;99369.25;4945138;28;104823;-72
2021/01/10 07:55:26;;;;;;;20.63;13.73;;;;;;;-2.41;96.92;99368.59;4953441;28;104399;-71
2021/01/10 07:57:54;;;;;;;18.93;13.13;;;;;;;-2.35;97.94;99368.56;4946427;28;103885;-72
2021/01/10 08:00:24;;;;;;;16.57;12.20;;;;;;;-2.29;97.82;99365.03;4941265;28;103083;-71
2021/01/10 08:02:56;;;;;;;19.03;13.57;;;;;;;-2.22;97.54;99366.69;4946663;28;103527;-73
2021/01/10 08:05:27;;;;;;;22.27;16.07;;;;;;;-2.31;97.51;99371.09;4948479;28;103667;-73
2021/01/10 08:07:59;;;;;;;20.80;15.07;;;;;;;-1.99;98.45;99372.47;4944733;28;102930;-74
2021/01/10 08:10:27;;;;;;;17.57;11.33;;;;;;;-1.83;97.48;99376.59;4945897;28;102953;-73
2021/01/10 08:12:55;;;;;;;19.30;14.27;;;;;;;-1.78;95.47;99380.00;4947901;28;103231;-73
2021/01/10 08:15:22;;;;;;;18.13;14.47;;;;;;;-2.17;96.46;99370.09;4947478;28;103731;-72
2021/01/10 08:17:54;;;;;;;20.40;14.60;;;;;;;-1.85;97.66;99372.28;4946121;28;103048;-73
2021/01/10 08:20:22;;;;;;;17.00;12.67;;;;;;;-1.64;97.13;99371.19;4950450;28;103018;-73
2021/01/10 08:22:50;;;;;;;15.40;11.60;;;;;;;-1.14;96.13;99373.91;4969145;28;103769;-79
2021/01/10 08:25:21;;;;;;;18.43;13.33;;;;;;;-1.39;93.55;99377.75;4979502;28;102412;-74
2021/01/10 08:27:49;;;;;;;12.67;9.00;;;;;;;-1.56;94.03;99371.94;4967738;28;102589;-76
2021/01/10 08:30:17;;;;;;;17.97;12.60;;;;;;;-1.46;93.26;99379.56;4950385;28;103046;-75
2021/01/10 08:32:44;;;;;;;16.57;12.10;;;;;;;-1.57;94.24;99378.84;4948937;28;103748;-73
2021/01/10 08:35:12;;;;;;;15.47;12.33;;;;;;;-1.86;94.85;99381.81;4939614;28;104818;-73
2021/01/10 08:37:39;;;;;;;18.20;13.13;;;;;;;-2.05;94.63;99388.06;4952192;28;102616;-77
2021/01/10 08:40:09;;;;;;;14.30;10.73;;;;;;;-1.93;95.50;99385.34;4950852;28;103099;-77
2021/01/10 08:42:36;;;;;;;17.30;12.93;;;;;;;-2.28;97.60;99390.06;4948554;28;103978;-76
2021/01/10 08:45:15;;;;;;;17.10;11.90;;;;;;;-1.98;97.81;99387.13;4950053;28;103834;-76
2021/01/10 08:47:42;;;;;;;16.50;12.00;;;;;;;-1.76;96.18;99383.41;4949743;28;103474;-76
2021/01/10 08:50:10;;;;;;;17.07;12.70;;;;;;;-2.02;96.23;99380.25;4949582;28;102675;-77
2021/01/10 08:52:55;;;;;;;18.13;13.10;;;;;;;-1.71;97.05;99379.91;4948149;28;104296;-76
2021/01/10 08:55:34;;;;;;;18.13;13.10;;;;;;;-1.73;95.59;99376.47;4948083;28;105311;-76
2021/01/10 08:58:04;;;;;;;18.77;14.40;;;;;;;-2.06;96.38;99383.78;4943816;28;103246;-76
2021/01/10 09:00:32;;;;;;;19.43;13.13;;;;;;;-2.02;97.24;99385.44;4946484;28;102806;-78
2021/01/10 09:03:16;;;;;;;17.97;13.13;;;;;;;-1.93;96.83;99374.97;4953376;28;104824;-80
2021/01/10 09:05:45;;;;;;;16.37;12.67;;;;;;;-1.70;97.79;99377.28;4947698;28;104354;-77
2021/01/10 09:08:33;;;;;;;17.57;13.17;;;;;;;-1.55;97.05;99376.25;4950039;28;103185;-77
2021/01/10 09:11:10;;;;;;;18.37;12.93;;;;;;;-1.56;95.65;99380.56;4949323;28;103139;-74
2021/01/10 09:13:40;;;;;;;13.40;10.07;;;;;;;-1.24;95.97;99383.59;4949808;28;104011;-74
2021/01/10 09:16:11;;;;;;;18.17;13.07;;;;;;;-1.51;94.29;99380.50;4950365;28;103050;-73
2021/01/10 09:18:41;;;;;;;19.83;12.27;;;;;;;-1.85;95.46;99388.69;4950546;28;103140;-73
2021/01/10 09:21:13;;;;;;;20.70;13.07;;;;;;;-2.04;96.53;99387.19;4953023;28;102722;-74
2021/01/10 09:23:48;;;;;;;17.90;11.60;;;;;;;-2.08;96.07;99395.91;4950314;28;103166;-74
2021/01/10 09:26:25;;;;;;;18.73;13.40;;;;;;;-1.87;95.32;99395.63;4948814;28;104778;-74
2021/01/10 09:28:52;;;;;;;15.47;11.37;;;;;;;-1.28;94.71;99392.28;4950128;28;102517;-73
2021/01/10 09:31:19;;;;;;;18.43;12.60;;;;;;;-0.79;91.45;99397.59;4949193;28;102634;-74
2021/01/10 09:33:54;;;;;;;15.73;11.10;;;;;;;-0.35;91.38;99393.38;4948904;28;104371;-74
2021/01/10 09:36:21;;;;;;;15.23;11.47;;;;;;;-0.35;90.90;99383.00;4947618;28;104764;-74
2021/01/10 09:38:57;;;;;;;17.87;12.37;;;;;;;-0.39;90.38;99386.56;4949485;28;102516;-73
2021/01/10 09:41:25;;;;;;;16.50;12.20;;;;;;;-0.20;89.54;99381.00;4949141;28;103366;-73
2021/01/10 09:43:55;;;;;;;16.20;12.33;;;;;;;0.07;88.02;99387.41;4944118;28;104914;-73
2021/01/10 09:46:27;;;;;;;16.47;11.77;;;;;;;0.02;87.24;99389.25;4948015;28;103901;-73
2021/01/10 09:48:56;;;;;;;17.00;12.67;;;;;;;0.13;87.92;99378.63;4947813;28;102577;-74
2021/01/10 09:51:37;;;;;;;14.77;11.47;;;;;;;0.04;87.98;99381.41;4946129;28;103099;-73
2021/01/10 09:54:11;;;;;;;16.33;12.07;;;;;;;0.19;87.51;99379.38;4949116;28;104147;-74
2021/01/10 09:56:44;;;;;;;12.67;10.23;;;;;;;0.47;89.09;99375.31;4947944;28;103803;-74
2021/01/10 09:59:38;;;;;;;12.70;9.87;;;;;;;1.01;86.97;99380.19;4936406;28;103349;-73
2021/01/10 10:02:14;;;;;;;13.07;10.20;;;;;;;0.50;85.73;99382.19;4946230;28;102991;-72
2021/01/10 10:04:42;;;;;;;14.27;11.97;;;;;;;0.30;85.49;99379.16;4947163;28;106038;-73
2021/01/10 10:07:09;;;;;;;13.27;9.87;;;;;;;0.79;85.75;99374.59;4947818;28;103269;-75
2021/01/10 10:09:53;;;;;;;13.60;11.13;;;;;;;0.69;83.91;99375.69;4951881;28;102613;-76
2021/01/10 10:12:22;;;;;;;14.63;11.07;;;;;;;0.85;85.03;99373.59;4949273;28;102811;-78
2021/01/10 10:14:51;;;;;;;13.20;11.27;;;;;;;1.23;84.14;99373.56;4948979;28;104847;-77
2021/01/10 10:17:22;;;;;;;14.90;11.83;;;;;;;1.12;84.41;99373.81;4950291;28;102841;-79
2021/01/10 10:19:49;;;;;;;13.60;10.47;;;;;;;1.26;84.68;99370.91;4948740;28;103043;-80
2021/01/10 10:22:24;;;;;;;12.70;10.47;;;;;;;1.13;83.60;99374.66;4948714;28;102966;-79
2021/01/10 10:24:52;;;;;;;14.07;11.27;;;;;;;1.04;84.20;99364.47;4949441;28;103482;-78
2021/01/10 10:27:19;;;;;;;12.70;11.13;;;;;;;1.04;83.72;99372.28;4947537;28;106808;-79
2021/01/10 10:29:48;;;;;;;12.07;9.80;;;;;;;1.70;83.05;99361.94;4949067;28;102569;-79
2021/01/10 10:32:15;;;;;;;13.30;11.20;;;;;;;1.18;83.54;99363.25;4947103;28;102778;-79
2021/01/10 10:34:43;;;;;;;13.00;10.47;;;;;;;1.40;81.55;99358.41;4948599;28;104941;-79
2021/01/10 10:37:10;;;;;;;12.30;10.23;;;;;;;1.51;81.34;99353.78;4948755;28;105105;-80
2021/01/10 10:39:37;;;;;;;10.70;9.60;;;;;;;1.58;83.08;99347.50;4948103;28;102541;-80
2021/01/10 10:42:05;;;;;;;15.53;12.07;;;;;;;1.28;83.63;99342.22;4949274;28;102779;-79
2021/01/10 10:44:32;;;;;;;12.23;10.77;;;;;;;1.13;84.68;99338.22;4948814;28;103408;-79
2021/01/10 10:47:00;;;;;;;13.93;11.57;;;;;;;1.28;83.52;99343.06;4946919;28;105291;-80
2021/01/10 10:49:28;;;;;;;14.00;11.10;;;;;;;1.79;82.67;99334.81;4946714;28;102566;-79
2021/01/10 10:51:56;;;;;;;11.93;8.80;;;;;;;1.33;82.90;99341.19;4934159;28;102582;-79
2021/01/10 10:54:23;;;;;;;10.53;8.87;;;;;;;1.35;82.43;99342.00;4929370;28;103755;-80
2021/01/10 10:56:50;;;;;;;9.77;8.57;;;;;;;1.42;81.47;99340.97;4928932;28;103687;-80
2021/01/10 10:59:19;;;;;;;11.17;8.47;;;;;;;1.70;80.57;99326.34;4946476;28;102741;-79
2021/01/10 11:01:48;;;;;;;9.43;8.43;;;;;;;1.24;81.38;99331.00;4946517;28;102942;-80
2021/01/10 11:04:17;;;;;;;9.73;7.80;;;;;;;1.53;79.95;99327.69;4954120;28;105511;-79
2021/01/10 11:06:44;;;;;;;10.40;8.47;;;;;;;1.41;80.35;99318.44;4947476;28;104020;-79
2021/01/10 11:09:11;;;;;;;10.17;8.77;;;;;;;1.27;81.24;99325.72;4949568;28;103212;-80
2021/01/10 11:11:40;;;;;;;10.97;9.57;;;;;;;1.01;82.24;99328.13;4950037;28;102926;-79
2021/01/10 11:14:08;;;;;;;11.47;9.40;;;;;;;1.12;82.01;99326.13;4942230;28;104304;-80
2021/01/10 11:16:37;;;;;;;12.23;9.67;;;;;;;1.44;82.26;99315.75;4932583;28;103593;-78
2021/01/10 11:19:06;;;;;;;10.60;9.13;;;;;;;1.58;80.76;99316.25;4946587;28;102886;-80
2021/01/10 11:21:35;;;;;;;13.23;9.37;;;;;;;1.37;81.21;99316.81;4946106;28;103124;-78
2021/01/10 11:24:03;;;;;;;11.23;9.90;;;;;;;1.29;81.33;99308.34;4945207;28;104364;-79
2021/01/10 11:26:30;;;;;;;11.70;9.23;;;;;;;1.47;80.86;99299.19;4944734;28;103890;-80